createdAt,value
2022-12-25T00:01:12.901Z,98157.91
2022-12-25T00:03:40.272Z,98154.72
2022-12-25T00:06:07.159Z,98149.91
2022-12-25T00:08:34.569Z,98153.81
2022-12-25T00:11:03.859Z,98158.06
2022-12-25T00:13:30.825Z,98158.13
2022-12-25T00:15:57.969Z,98150.66
2022-12-25T00:18:24.909Z,98153.38
2022-12-25T00:21:18.682Z,98147.44
2022-12-25T00:23:45.797Z,98145.25
2022-12-25T00:26:17.085Z,98140.75
2022-12-25T00:28:43.916Z,98144.97
2022-12-25T00:31:13.363Z,98137.56
2022-12-25T00:33:41.818Z,98126.13
2022-12-25T00:36:09.826Z,98129.28
2022-12-25T00:38:38.725Z,98129.84
2022-12-25T00:41:07.743Z,98133.28
2022-12-25T00:43:34.794Z,98136.03
2022-12-25T00:46:03.743Z,98140.06
2022-12-25T00:48:31.322Z,98122.38
2022-12-25T00:51:00.219Z,98134.94
2022-12-25T00:53:28.024Z,98137.81
2022-12-25T00:56:06.094Z,98144.97
2022-12-25T00:58:34.030Z,98144.44
2022-12-25T01:01:00.909Z,98149.53
2022-12-25T01:03:28.217Z,98143.38
2022-12-25T01:06:07.205Z,98146.69
2022-12-25T01:08:37.094Z,98152.72
2022-12-25T01:11:08.638Z,98154.59
2022-12-25T01:13:36.663Z,98151.50
2022-12-25T01:16:10.397Z,98147.19
2022-12-25T01:18:38.451Z,98138.13
2022-12-25T01:21:12.898Z,98136.56
2022-12-25T01:23:39.699Z,98134.16
2022-12-25T01:26:07.286Z,98133.06
2022-12-25T01:28:34.980Z,98141.13
2022-12-25T01:31:02.394Z,98129.88
2022-12-25T01:33:29.423Z,98121.25
2022-12-25T01:35:57.839Z,98132.19
2022-12-25T01:38:24.780Z,98115.34
2022-12-25T01:40:51.535Z,98109.13
2022-12-25T01:43:28.887Z,98106.19
2022-12-25T01:45:56.094Z,98098.41
2022-12-25T01:48:26.063Z,98091.13
2022-12-25T01:50:59.640Z,98092.72
2022-12-25T01:53:26.843Z,98107.41
2022-12-25T01:56:00.629Z,98120.97
2022-12-25T01:58:27.607Z,98128.56
2022-12-25T02:00:54.450Z,98140.59
2022-12-25T02:03:21.954Z,98128.88
2022-12-25T02:05:48.827Z,98124.09
2022-12-25T02:08:17.132Z,98139.84
2022-12-25T02:10:44.912Z,98135.56
2022-12-25T02:13:16.743Z,98138.47
2022-12-25T02:15:55.848Z,98131.72
2022-12-25T02:18:41.504Z,98125.13
2022-12-25T02:21:26.477Z,98111.50
2022-12-25T02:24:27.448Z,98114.72
2022-12-25T02:27:01.846Z,98111.50
2022-12-25T02:29:39.914Z,98110.88
2022-12-25T02:32:15.065Z,98109.25
2022-12-25T02:34:48.440Z,98111.91
2022-12-25T02:37:33.937Z,98111.56
2022-12-25T02:40:09.497Z,98114.16
2022-12-25T02:43:20.858Z,98125.03
2022-12-25T02:46:05.998Z,98118.63
2022-12-25T02:48:54.527Z,98125.91
2022-12-25T02:51:42.935Z,98108.06
2022-12-25T02:54:31.704Z,98103.69
2022-12-25T02:57:18.421Z,98101.56
2022-12-25T03:00:06.339Z,98087.72
2022-12-25T03:02:52.260Z,98096.28
2022-12-25T03:05:51.061Z,98106.16
2022-12-25T03:08:44.300Z,98118.16
2022-12-25T03:11:31.196Z,98121.00
2022-12-25T03:14:20.803Z,98132.03
2022-12-25T03:16:53.798Z,98133.31
2022-12-25T03:19:41.900Z,98126.38
2022-12-25T03:22:30.916Z,98131.97
2022-12-25T03:25:16.537Z,98136.25
2022-12-25T03:27:44.737Z,98124.50
2022-12-25T03:30:30.614Z,98126.34
2022-12-25T03:33:43.192Z,98125.31
2022-12-25T03:36:25.776Z,98117.31
2022-12-25T03:39:33.056Z,98117.63
2022-12-25T03:42:19.933Z,98126.09
2022-12-25T03:45:28.019Z,98127.50
2022-12-25T03:48:21.812Z,98122.09
2022-12-25T03:51:11.811Z,98117.94
2022-12-25T03:54:13.030Z,98121.84
2022-12-25T03:56:58.243Z,98120.72
2022-12-25T03:59:43.780Z,98113.47
2022-12-25T04:02:29.751Z,98117.50
2022-12-25T04:05:15.225Z,98109.16
2022-12-25T04:08:00.771Z,98123.63
2022-12-25T04:10:46.304Z,98123.88
2022-12-25T04:13:31.732Z,98123.72
2022-12-25T04:16:17.337Z,98131.50
2022-12-25T04:19:02.837Z,98138.19
2022-12-25T04:21:48.231Z,98134.75
2022-12-25T04:24:33.526Z,98139.81
2022-12-25T04:27:18.870Z,98133.69
2022-12-25T04:30:04.202Z,98141.25
2022-12-25T04:32:49.905Z,98152.66
2022-12-25T04:35:35.189Z,98154.59
2022-12-25T04:38:02.019Z,98154.91
2022-12-25T04:40:28.841Z,98146.06
2022-12-25T04:42:55.608Z,98143.69
2022-12-25T04:45:22.385Z,98137.56
2022-12-25T04:47:49.276Z,98131.16
2022-12-25T04:50:16.072Z,98135.66
2022-12-25T04:52:42.965Z,98135.16
2022-12-25T04:55:11.320Z,98128.72
2022-12-25T04:57:38.324Z,98124.97
2022-12-25T05:00:06.563Z,98128.56
2022-12-25T05:02:33.555Z,98124.03
2022-12-25T05:05:00.471Z,98129.56
2022-12-25T05:07:27.408Z,98136.75
2022-12-25T05:09:54.175Z,98127.03
2022-12-25T05:12:21.173Z,98138.16
2022-12-25T05:14:48.014Z,98134.41
2022-12-25T05:17:14.887Z,98129.63
2022-12-25T05:19:42.862Z,98128.31
2022-12-25T05:22:09.754Z,98128.19
2022-12-25T05:24:36.492Z,98104.41
2022-12-25T05:27:03.627Z,98117.44
2022-12-25T05:29:30.385Z,98120.41
2022-12-25T05:31:57.212Z,98114.75
2022-12-25T05:34:24.023Z,98115.88
2022-12-25T05:36:50.899Z,98105.16
2022-12-25T05:39:17.650Z,98106.78
2022-12-25T05:41:44.462Z,98107.03
2022-12-25T05:44:11.268Z,98112.41
2022-12-25T05:46:38.102Z,98107.31
2022-12-25T05:49:05.835Z,98125.28
2022-12-25T05:51:32.907Z,98118.88
2022-12-25T05:53:59.800Z,98123.41
2022-12-25T05:56:27.061Z,98120.75
2022-12-25T05:58:54.295Z,98109.34
2022-12-25T06:01:23.916Z,98117.34
2022-12-25T06:03:51.059Z,98102.41
2022-12-25T06:06:18.179Z,98119.38
2022-12-25T06:08:45.148Z,98115.19
2022-12-25T06:11:14.060Z,98134.94
2022-12-25T06:13:41.111Z,98123.66
2022-12-25T06:16:10.352Z,98123.72
2022-12-25T06:18:38.614Z,98117.69
2022-12-25T06:21:09.851Z,98120.66
2022-12-25T06:23:37.903Z,98130.88
2022-12-25T06:26:10.473Z,98121.00
2022-12-25T06:28:37.363Z,98127.50
2022-12-25T06:31:11.324Z,98132.78
2022-12-25T06:33:38.413Z,98138.94
2022-12-25T06:36:13.981Z,98139.56
2022-12-25T06:38:41.765Z,98140.03
2022-12-25T06:41:10.914Z,98134.47
2022-12-25T06:43:38.090Z,98128.84
2022-12-25T06:46:09.927Z,98111.78
2022-12-25T06:48:37.806Z,98115.72
2022-12-25T06:51:05.873Z,98125.91
2022-12-25T06:53:39.746Z,98116.03
2022-12-25T06:56:10.314Z,98119.00
2022-12-25T06:58:37.105Z,98116.69
2022-12-25T07:01:15.235Z,98116.94
2022-12-25T07:03:43.940Z,98123.72
2022-12-25T07:06:10.784Z,98117.03
2022-12-25T07:08:37.545Z,98105.34
2022-12-25T07:11:04.712Z,98117.53
2022-12-25T07:13:31.552Z,98110.69
2022-12-25T07:16:00.046Z,98113.34
2022-12-25T07:18:28.043Z,98131.22
2022-12-25T07:20:59.519Z,98139.81
2022-12-25T07:23:26.967Z,98138.31
2022-12-25T07:25:55.105Z,98139.94
2022-12-25T07:28:22.009Z,98144.50
2022-12-25T07:30:48.805Z,98139.66
2022-12-25T07:33:15.985Z,98143.72
2022-12-25T07:35:42.830Z,98137.06
2022-12-25T07:38:09.803Z,98137.81
2022-12-25T07:40:36.794Z,98133.28
2022-12-25T07:43:03.608Z,98131.16
2022-12-25T07:45:30.411Z,98141.78
2022-12-25T07:48:02.755Z,98146.59
2022-12-25T07:50:32.137Z,98146.81
2022-12-25T07:52:58.940Z,98147.59
2022-12-25T07:55:25.743Z,98150.38
2022-12-25T07:57:52.922Z,98150.78
2022-12-25T08:00:19.997Z,98153.69
2022-12-25T08:02:50.169Z,98151.56
2022-12-25T08:05:17.442Z,98150.19
2022-12-25T08:07:44.423Z,98155.94
2022-12-25T08:10:11.525Z,98153.78
2022-12-25T08:12:38.244Z,98151.16
2022-12-25T08:15:05.588Z,98157.47
2022-12-25T08:17:34.987Z,98145.78
2022-12-25T08:20:01.811Z,98156.22
2022-12-25T08:22:28.700Z,98163.69
2022-12-25T08:24:55.506Z,98160.50
2022-12-25T08:27:22.296Z,98163.97
2022-12-25T08:29:49.111Z,98161.94
2022-12-25T08:32:15.848Z,98159.25
2022-12-25T08:34:43.825Z,98166.19
2022-12-25T08:37:10.652Z,98160.78
2022-12-25T08:39:37.519Z,98151.66
2022-12-25T08:42:04.449Z,98153.28
2022-12-25T08:44:31.364Z,98148.19
2022-12-25T08:46:58.118Z,98143.56
2022-12-25T08:49:27.449Z,98147.53
2022-12-25T08:51:54.608Z,98148.56
2022-12-25T08:54:21.509Z,98149.41
2022-12-25T08:56:48.275Z,98166.50
2022-12-25T08:59:15.133Z,98171.53
2022-12-25T09:01:41.940Z,98179.16
2022-12-25T09:04:08.790Z,98190.63
2022-12-25T09:06:35.528Z,98193.91
2022-12-25T09:09:02.357Z,98194.81
2022-12-25T09:11:29.171Z,98203.41
2022-12-25T09:13:56.009Z,98191.97
2022-12-25T09:16:23.200Z,98201.88
2022-12-25T09:18:50.625Z,98194.44
2022-12-25T09:21:18.061Z,98199.56
2022-12-25T09:23:45.093Z,98210.00
2022-12-25T09:26:14.306Z,98212.34
2022-12-25T09:28:48.432Z,98211.34
2022-12-25T09:31:18.038Z,98209.53
2022-12-25T09:33:44.863Z,98216.00
2022-12-25T09:36:11.731Z,98218.16
2022-12-25T09:38:38.745Z,98223.22
2022-12-25T09:41:13.018Z,98218.88
2022-12-25T09:43:44.226Z,98213.38
2022-12-25T09:46:15.706Z,98209.00
2022-12-25T09:49:04.663Z,98208.50
2022-12-25T09:51:34.147Z,98208.72
2022-12-25T09:54:04.958Z,98219.56
2022-12-25T09:56:32.694Z,98216.03
2022-12-25T09:58:59.468Z,98225.63
2022-12-25T10:01:46.372Z,98223.03
2022-12-25T10:04:19.411Z,98228.69
2022-12-25T10:07:25.623Z,98232.75
2022-12-25T10:10:17.895Z,98233.91
2022-12-25T10:12:50.672Z,98240.25
2022-12-25T10:15:29.891Z,98244.53
2022-12-25T10:18:21.336Z,98241.91
2022-12-25T10:21:00.290Z,98251.06
2022-12-25T10:23:44.430Z,98250.59
2022-12-25T10:26:20.334Z,98242.84
2022-12-25T10:28:57.977Z,98246.03
2022-12-25T10:31:27.586Z,98247.91
2022-12-25T10:33:54.929Z,98253.53
2022-12-25T10:36:25.077Z,98252.34
2022-12-25T10:38:52.600Z,98256.91
2022-12-25T10:41:50.281Z,98263.06
2022-12-25T10:44:24.295Z,98264.94
2022-12-25T10:46:56.310Z,98253.97
2022-12-25T10:49:35.549Z,98256.13
2022-12-25T10:52:04.057Z,98259.59
2022-12-25T10:54:36.070Z,98252.66
2022-12-25T10:57:14.622Z,98251.03
2022-12-25T10:59:52.467Z,98258.81
2022-12-25T11:02:25.440Z,98256.94
2022-12-25T11:05:01.604Z,98270.63
2022-12-25T11:07:28.977Z,98272.75
2022-12-25T11:10:05.337Z,98279.22
2022-12-25T11:12:37.907Z,98284.66
2022-12-25T11:15:30.832Z,98292.78
2022-12-25T11:17:57.766Z,98289.78
2022-12-25T11:20:24.713Z,98301.50
2022-12-25T11:22:51.809Z,98301.81
2022-12-25T11:25:24.299Z,98312.31
2022-12-25T11:28:02.984Z,98313.66
2022-12-25T11:30:31.564Z,98306.94
2022-12-25T11:33:01.694Z,98312.81
2022-12-25T11:35:31.921Z,98321.25
2022-12-25T11:37:58.915Z,98312.97
2022-12-25T11:40:40.608Z,98324.22
2022-12-25T11:43:16.016Z,98326.69
2022-12-25T11:45:47.868Z,98320.03
2022-12-25T11:48:18.453Z,98322.44
2022-12-25T11:51:00.641Z,98317.06
2022-12-25T11:53:27.453Z,98321.06
2022-12-25T11:55:57.285Z,98315.47
2022-12-25T11:58:37.932Z,98328.41
2022-12-25T12:01:08.533Z,98325.47
2022-12-25T12:03:37.975Z,98317.44
2022-12-25T12:06:09.107Z,98315.69
2022-12-25T12:08:36.615Z,98321.59
2022-12-25T12:11:17.828Z,98323.50
2022-12-25T12:13:56.151Z,98326.44
2022-12-25T12:16:23.608Z,98328.03
2022-12-25T12:18:50.982Z,98330.19
2022-12-25T12:21:17.865Z,98334.22
2022-12-25T12:24:15.795Z,98325.94
2022-12-25T12:26:44.695Z,98332.66
2022-12-25T12:29:29.236Z,98331.03
2022-12-25T12:32:00.770Z,98339.34
2022-12-25T12:34:27.607Z,98344.91
2022-12-25T12:37:08.086Z,98351.59
2022-12-25T12:39:37.599Z,98349.53
2022-12-25T12:42:15.916Z,98339.56
2022-12-25T12:44:42.989Z,98340.94
2022-12-25T12:47:47.818Z,98340.16
2022-12-25T12:50:36.849Z,98347.66
2022-12-25T12:53:24.137Z,98341.28
2022-12-25T12:55:52.058Z,98345.97
2022-12-25T12:58:48.631Z,98354.00
2022-12-25T13:01:27.843Z,98354.00
2022-12-25T13:04:15.059Z,98347.59
2022-12-25T13:07:00.416Z,98343.84
2022-12-25T13:09:51.796Z,98337.09
2022-12-25T13:12:19.641Z,98334.63
2022-12-25T13:14:47.347Z,98332.16
2022-12-25T13:17:18.473Z,98341.50
2022-12-25T13:19:45.741Z,98334.34
2022-12-25T13:22:30.252Z,98323.59
2022-12-25T13:25:00.508Z,98322.41
2022-12-25T13:27:30.412Z,98327.66
2022-12-25T13:29:57.942Z,98333.25
2022-12-25T13:32:32.872Z,98343.56
2022-12-25T13:35:00.405Z,98336.66
2022-12-25T13:37:28.893Z,98335.59
2022-12-25T13:39:58.267Z,98335.13
2022-12-25T13:42:36.618Z,98329.94
2022-12-25T13:45:24.547Z,98330.75
2022-12-25T13:47:55.609Z,98326.22
2022-12-25T13:50:25.962Z,98329.38
2022-12-25T13:52:55.710Z,98333.41
2022-12-25T13:55:27.698Z,98336.34
2022-12-25T13:58:01.580Z,98337.06
2022-12-25T14:00:39.125Z,98340.16
2022-12-25T14:03:07.727Z,98344.09
2022-12-25T14:05:42.275Z,98349.25
2022-12-25T14:08:25.565Z,98342.84
2022-12-25T14:10:53.231Z,98335.84
2022-12-25T14:13:22.549Z,98344.38
2022-12-25T14:15:51.146Z,98340.03
2022-12-25T14:18:19.754Z,98350.44
2022-12-25T14:21:05.121Z,98351.06
2022-12-25T14:23:52.241Z,98346.41
2022-12-25T14:26:20.244Z,98356.28
2022-12-25T14:28:48.992Z,98355.22
2022-12-25T14:31:16.763Z,98364.84
2022-12-25T14:33:43.699Z,98371.94
2022-12-25T14:36:12.279Z,98375.53
2022-12-25T14:38:41.647Z,98384.47
2022-12-25T14:41:22.630Z,98389.69
2022-12-25T14:43:54.517Z,98396.81
2022-12-25T14:46:26.925Z,98393.66
2022-12-25T14:49:05.361Z,98386.19
2022-12-25T14:51:33.428Z,98393.84
2022-12-25T14:54:04.397Z,98388.41
2022-12-25T14:56:38.054Z,98388.16
2022-12-25T14:59:07.738Z,98382.06
2022-12-25T15:01:41.775Z,98379.53
2022-12-25T15:04:11.530Z,98393.34
2022-12-25T15:07:07.502Z,98391.41
2022-12-25T15:09:36.196Z,98385.28
2022-12-25T15:12:03.202Z,98396.38
2022-12-25T15:14:31.783Z,98395.91
2022-12-25T15:17:00.861Z,98396.84
2022-12-25T15:19:36.973Z,98387.09
2022-12-25T15:22:04.860Z,98384.97
2022-12-25T15:24:31.808Z,98390.94
2022-12-25T15:27:00.442Z,98399.22
2022-12-25T15:30:07.372Z,98394.50
2022-12-25T15:32:20.127Z,98388.09
2022-12-25T15:34:49.945Z,98388.66
2022-12-25T15:37:18.046Z,98398.16
2022-12-25T15:39:45.212Z,98404.94
2022-12-25T15:42:14.674Z,98407.72
2022-12-25T15:44:42.059Z,98403.81
2022-12-25T15:47:10.483Z,98412.06
2022-12-25T15:49:37.265Z,98412.31
2022-12-25T15:52:09.843Z,98422.88
2022-12-25T15:54:36.903Z,98418.53
2022-12-25T15:57:05.872Z,98421.91
2022-12-25T15:59:33.397Z,98424.22
2022-12-25T16:02:01.355Z,98429.41
2022-12-25T16:04:29.155Z,98431.50
2022-12-25T16:06:56.687Z,98427.06
2022-12-25T16:09:23.604Z,98436.56
2022-12-25T16:11:50.368Z,98429.84
2022-12-25T16:14:17.241Z,98437.44
2022-12-25T16:16:44.033Z,98435.41
2022-12-25T16:19:11.027Z,98441.25
2022-12-25T16:21:41.894Z,98442.06
2022-12-25T16:24:09.345Z,98443.19
2022-12-25T16:26:36.218Z,98444.81
2022-12-25T16:29:07.202Z,98444.94
2022-12-25T16:31:35.224Z,98441.59
2022-12-25T16:34:02.180Z,98445.09
2022-12-25T16:36:28.944Z,98451.94
2022-12-25T16:38:55.791Z,98456.91
2022-12-25T16:41:22.693Z,98457.41
2022-12-25T16:43:49.513Z,98447.69
2022-12-25T16:46:19.776Z,98446.28
2022-12-25T16:48:46.746Z,98433.81
2022-12-25T16:51:15.663Z,98443.50
2022-12-25T16:53:43.597Z,98440.63
2022-12-25T16:56:14.773Z,98436.91
2022-12-25T16:58:42.605Z,98439.56
2022-12-25T17:01:15.648Z,98445.06
2022-12-25T17:03:43.130Z,98444.00
2022-12-25T17:06:23.156Z,98449.63
2022-12-25T17:08:51.981Z,98444.09
2022-12-25T17:11:27.252Z,98451.91
2022-12-25T17:13:54.537Z,98444.78
2022-12-25T17:16:29.629Z,98438.56
2022-12-25T17:19:01.513Z,98437.88
2022-12-25T17:21:29.356Z,98430.34
2022-12-25T17:24:02.101Z,98428.50
2022-12-25T17:26:31.206Z,98429.72
2022-12-25T17:28:58.631Z,98432.47
2022-12-25T17:31:25.535Z,98424.22
2022-12-25T17:33:52.436Z,98422.19
2022-12-25T17:36:20.534Z,98421.63
2022-12-25T17:38:48.161Z,98421.41
2022-12-25T17:41:16.697Z,98420.25
2022-12-25T17:43:45.671Z,98419.22
2022-12-25T17:46:16.504Z,98418.25
2022-12-25T17:48:43.469Z,98423.91
2022-12-25T17:51:13.230Z,98413.47
2022-12-25T17:53:42.894Z,98417.81
2022-12-25T17:56:10.869Z,98411.22
2022-12-25T17:58:38.455Z,98415.75
2022-12-25T18:01:13.598Z,98423.97
2022-12-25T18:03:40.828Z,98422.84
2022-12-25T18:06:12.443Z,98431.56
2022-12-25T18:08:39.983Z,98433.19
2022-12-25T18:11:09.199Z,98429.00
2022-12-25T18:13:36.199Z,98431.31
2022-12-25T18:16:05.750Z,98423.16
2022-12-25T18:18:33.316Z,98441.03
2022-12-25T18:21:01.882Z,98427.13
2022-12-25T18:23:28.828Z,98432.63
2022-12-25T18:25:55.786Z,98436.34
2022-12-25T18:28:23.426Z,98446.78
2022-12-25T18:30:50.147Z,98452.25
2022-12-25T18:33:16.967Z,98454.53
2022-12-25T18:35:44.403Z,98445.66
2022-12-25T18:38:11.790Z,98453.97
2022-12-25T18:40:42.293Z,98432.41
2022-12-25T18:43:09.433Z,98429.50
2022-12-25T18:45:36.596Z,98429.94
2022-12-25T18:48:06.172Z,98436.72
2022-12-25T18:50:34.018Z,98429.47
2022-12-25T18:53:01.489Z,98432.78
2022-12-25T18:55:28.411Z,98432.22
2022-12-25T18:57:55.616Z,98435.94
2022-12-25T19:00:22.845Z,98444.59
2022-12-25T19:02:50.018Z,98443.47
2022-12-25T19:05:17.444Z,98442.00
2022-12-25T19:07:44.389Z,98450.19
2022-12-25T19:10:11.189Z,98441.13
2022-12-25T19:12:38.194Z,98443.00
2022-12-25T19:15:05.632Z,98455.13
2022-12-25T19:17:34.241Z,98457.28
2022-12-25T19:20:02.416Z,98448.97
2022-12-25T19:22:29.408Z,98448.91
2022-12-25T19:24:56.284Z,98446.88
2022-12-25T19:27:23.096Z,98439.88
2022-12-25T19:29:49.883Z,98438.81
2022-12-25T19:32:16.772Z,98446.41
2022-12-25T19:34:43.620Z,98443.34
2022-12-25T19:37:10.506Z,98439.38
2022-12-25T19:39:37.846Z,98436.41
2022-12-25T19:42:04.620Z,98430.81
2022-12-25T19:44:31.462Z,98425.81
2022-12-25T19:46:58.352Z,98426.72
2022-12-25T19:49:25.821Z,98427.56
2022-12-25T19:51:52.589Z,98432.00
2022-12-25T19:54:20.756Z,98429.28
2022-12-25T19:56:48.640Z,98425.72
2022-12-25T19:59:15.943Z,98428.22
2022-12-25T20:01:43.747Z,98419.91
2022-12-25T20:04:10.901Z,98428.53
2022-12-25T20:06:39.558Z,98428.22
2022-12-25T20:09:08.932Z,98443.53
2022-12-25T20:11:37.001Z,98453.50
2022-12-25T20:14:05.576Z,98461.56
2022-12-25T20:16:38.809Z,98455.75
2022-12-25T20:19:05.850Z,98461.91
2022-12-25T20:21:33.236Z,98457.22
2022-12-25T20:24:00.216Z,98457.66
2022-12-25T20:26:29.730Z,98450.81
2022-12-25T20:28:57.259Z,98452.47
2022-12-25T20:31:29.031Z,98451.28
2022-12-25T20:33:57.758Z,98444.94
2022-12-25T20:36:24.698Z,98452.53
2022-12-25T20:38:52.786Z,98463.63
2022-12-25T20:41:29.495Z,98460.91
2022-12-25T20:43:57.192Z,98484.38
2022-12-25T20:46:24.915Z,98482.91
2022-12-25T20:48:53.069Z,98473.72
2022-12-25T20:51:22.498Z,98486.50
2022-12-25T20:53:50.399Z,98495.88
2022-12-25T20:56:18.907Z,98499.13
2022-12-25T20:58:45.779Z,98488.84
2022-12-25T21:01:15.370Z,98498.06
2022-12-25T21:03:42.994Z,98502.47
2022-12-25T21:06:09.897Z,98508.63
2022-12-25T21:08:37.255Z,98510.81
2022-12-25T21:11:04.694Z,98500.97
2022-12-25T21:13:42.979Z,98512.97
2022-12-25T21:16:13.579Z,98513.06
2022-12-25T21:18:40.891Z,98512.72
2022-12-25T21:21:08.205Z,98509.50
2022-12-25T21:23:36.790Z,98514.09
2022-12-25T21:26:15.766Z,98513.03
2022-12-25T21:28:42.769Z,98508.84
2022-12-25T21:31:10.333Z,98523.47
2022-12-25T21:33:52.371Z,98524.88
2022-12-25T21:36:32.612Z,98527.94
2022-12-25T21:39:07.473Z,98524.06
2022-12-25T21:41:35.572Z,98525.03
2022-12-25T21:44:02.339Z,98530.63
2022-12-25T21:46:29.944Z,98521.63
2022-12-25T21:48:57.355Z,98526.38
2022-12-25T21:51:48.021Z,98534.69
2022-12-25T21:54:15.654Z,98528.94
2022-12-25T21:56:45.144Z,98531.53
2022-12-25T21:59:15.208Z,98544.00
2022-12-25T22:01:42.844Z,98530.31
2022-12-25T22:04:11.273Z,98532.56
2022-12-25T22:06:56.645Z,98526.13
2022-12-25T22:09:24.053Z,98523.84
2022-12-25T22:12:09.080Z,98529.53
2022-12-25T22:14:54.918Z,98537.44
2022-12-25T22:17:42.911Z,98536.66
2022-12-25T22:20:13.103Z,98529.97
2022-12-25T22:22:39.982Z,98531.13
2022-12-25T22:25:07.122Z,98536.38
2022-12-25T22:27:35.917Z,98544.91
2022-12-25T22:30:02.988Z,98542.31
2022-12-25T22:32:30.263Z,98545.53
2022-12-25T22:34:57.245Z,98553.78
2022-12-25T22:37:24.503Z,98543.84
2022-12-25T22:39:51.258Z,98548.66
2022-12-25T22:42:18.145Z,98545.88
2022-12-25T22:44:45.776Z,98544.34
2022-12-25T22:47:12.700Z,98545.59
2022-12-25T22:49:39.679Z,98542.41
2022-12-25T22:52:08.240Z,98551.91
2022-12-25T22:54:36.130Z,98553.00
2022-12-25T22:57:03.045Z,98563.63
2022-12-25T22:59:29.891Z,98561.06
2022-12-25T23:01:56.771Z,98553.09
2022-12-25T23:04:23.966Z,98539.88
2022-12-25T23:06:51.234Z,98535.38
2022-12-25T23:09:24.888Z,98532.41
2022-12-25T23:11:51.974Z,98530.72
2022-12-25T23:14:37.300Z,98529.06
2022-12-25T23:17:04.345Z,98522.34
2022-12-25T23:19:49.675Z,98514.75
2022-12-25T23:22:35.025Z,98516.66
2022-12-25T23:25:20.709Z,98505.97
2022-12-25T23:27:47.675Z,98513.78
2022-12-25T23:30:16.346Z,98524.03
2022-12-25T23:32:44.068Z,98526.03
2022-12-25T23:35:11.865Z,98536.28
2022-12-25T23:37:38.702Z,98537.69
2022-12-25T23:40:06.163Z,98537.63
2022-12-25T23:42:32.902Z,98535.41
2022-12-25T23:44:59.660Z,98523.97
2022-12-25T23:47:26.558Z,98520.97
2022-12-25T23:49:53.337Z,98522.88
2022-12-25T23:52:20.285Z,98529.72
2022-12-25T23:54:47.091Z,98520.44
2022-12-25T23:57:13.833Z,98528.34
2022-12-25T23:59:40.677Z,98523.03
